Kim King — WDG5328 — position and weather

sailwx.info

Track history (hours):
 
Tides and Currents Weather Stations Pressure Air Temp Water Temp Dewpoint Dewpoint Depression Visibility Wind Speed Wind Dir Waves Ship Positions

Kim King

Owner: Terral RiverService, Inc., Lake Providence, LA. More information available from US FCC via Universal Licensing System and Coast Guard Vessel Documentation Center.

Last reported at 2017-Oct-19 09:00 UTC. Time now 2017-Oct-19 09:13 UTC.
Position N 32°45' W 091°10'.

; draft 6 m.

Type: Towing. MMSI: 367545540.

Date/timePositionNaut miles runAvg speedWind from/ knotsBaromVisibWave heightAir tempDewpointWater temp
2017-Oct-19 09:00N 32°45' W 091°10'4 4.4
2017-Oct-19 08:02N 32°44' W 091°05'4 3.5
2017-Oct-19 06:53N 32°44' W 091°10'0 0.0
2017-Oct-19 05:06N 32°44' W 091°10'4 5.3
2017-Oct-19 04:21N 32°44' W 091°05'0 0.3
2017-Oct-19 03:54N 32°44' W 091°05'5 4.7
2017-Oct-19 02:55N 32°45' W 091°10'0 0.0
2017-Oct-19 02:23N 32°45' W 091°10'0 0.0
2017-Oct-19 02:00N 32°45' W 091°10'0 0.0
2017-Oct-19 01:28N 32°45' W 091°10'0 0.0
2017-Oct-19 01:00N 32°45' W 091°10'1 0.1
2017-Oct-18 16:07N 32°45' W 091°10'0 0.2
2017-Oct-18 13:59N 32°45' W 091°10'1 2.4
2017-Oct-18 13:30N 32°44' W 091°09'1 0.4
2017-Oct-18 11:33N 32°45' W 091°10'0 0.1
2017-Oct-18 11:30N 32°45' W 091°10'0 0.2
2017-Oct-18 09:07N 32°45' W 091°10'0 0.1
2017-Oct-18 07:15N 32°45' W 091°10'0 0.1
2017-Oct-18 04:46N 32°45' W 091°10'0 0.0
2017-Oct-17 12:10N 32°45' W 091°10'0 0.1
2017-Oct-17 09:08N 32°45' W 091°10'0 0.0
2017-Oct-17 05:02N 32°45' W 091°10'0 0.2
2017-Oct-17 02:12N 32°45' W 091°10'0 0.4
2017-Oct-17 01:24N 32°45' W 091°10'0 0.0
2017-Oct-16 13:24N 32°45' W 091°10'0 0.1
2017-Oct-16 09:02N 32°45' W 091°10'0 0.0
2017-Oct-16 08:48N 32°45' W 091°10'0 0.0
2017-Oct-16 08:13N 32°45' W 091°10'0 0.0
2017-Oct-16 07:59N 32°45' W 091°10'0 0.0
2017-Oct-15 15:21N 32°45' W 091°10'0 0.0
2017-Oct-15 04:25N 32°45' W 091°10'1 0.5
2017-Oct-15 03:16N 32°45' W 091°10'0 1.8
2017-Oct-15 02:59N 32°45' W 091°10'1 1.5
2017-Oct-15 02:27N 32°45' W 091°10'1 1.7
2017-Oct-15 01:57N 32°45' W 091°10'1 1.9
2017-Oct-15 01:30N 32°45' W 091°10'0 0.4
2017-Oct-15 00:35N 32°45' W 091°10'0 0.0
2017-Oct-14 23:18N 32°45' W 091°10'1 0.0
2017-Oct-14 12:03N 32°45' W 091°10'0 0.2
2017-Oct-14 11:57N 32°45' W 091°10'0 0.0
2017-Oct-14 10:39N 32°45' W 091°10'0 0.0
2017-Oct-14 06:41N 32°45' W 091°10'0 0.0
2017-Oct-14 06:31N 32°45' W 091°10'0 0.0
2017-Oct-14 05:59N 32°45' W 091°10'0 0.0
2017-Oct-14 05:06N 32°45' W 091°10'0 0.0
2017-Oct-14 05:01N 32°45' W 091°10'0 0.0
2017-Oct-14 04:28N 32°45' W 091°10'0 0.0
2017-Oct-14 03:55N 32°45' W 091°10'0 0.0
2017-Oct-14 03:16N 32°45' W 091°10'0 0.0
2017-Oct-14 02:52N 32°45' W 091°10'1 0.1
2017-Oct-13 15:26N 32°44' W 091°09'1 2.3
2017-Oct-13 15:00N 32°44' W 091°08'1 2.4
2017-Oct-13 14:30N 32°44' W 091°07'2 1.4
2017-Oct-13 12:59N 32°44' W 091°09'3 1.0
2017-Oct-13 09:34N 32°44' W 091°05'0 0.1
2017-Oct-13 09:31N 32°44' W 091°05'0 0.0
2017-Oct-13 09:00N 32°44' W 091°05'0 0.2
2017-Oct-13 08:18N 32°44' W 091°05'0 0.2
2017-Oct-13 08:00N 32°44' W 091°05'0 0.2
2017-Oct-13 07:21N 32°44' W 091°05'4 3.3
2017-Oct-13 06:03N 32°45' W 091°10'0 1.0
2017-Oct-13 05:46N 32°45' W 091°10'0 0.0
2017-Oct-13 05:30N 32°45' W 091°10'0 0.6
2017-Oct-13 04:57N 32°45' W 091°10'0 0.1
2017-Oct-13 03:10N 32°45' W 091°10'0 0.8
2017-Oct-13 02:59N 32°45' W 091°10'1 1.9
2017-Oct-13 02:30N 32°44' W 091°10'4 0.2
2017-Oct-12 06:22N 32°44' W 091°04'0 0.1
2017-Oct-12 05:39N 32°44' W 091°04'0 0.2
2017-Oct-12 05:29N 32°44' W 091°04'0 0.3
2017-Oct-12 04:08N 32°44' W 091°05'0 0.3
2017-Oct-12 04:01N 32°44' W 091°05'0 0.1
2017-Oct-12 03:30N 32°44' W 091°05'0 0.2
2017-Oct-12 02:55N 32°44' W 091°05'0 0.2
2017-Oct-12 01:45N 32°44' W 091°04'0 0.0
2017-Oct-12 01:28N 32°44' W 091°04'0 0.2
2017-Oct-12 00:56N 32°44' W 091°05'5 1.1
2017-Oct-11 20:46N 32°45' W 091°10'1 0.5
2017-Oct-11 19:31N 32°45' W 091°10'0 0.0
2017-Oct-11 19:08N 32°45' W 091°10'0 0.0
2017-Oct-11 18:59N 32°45' W 091°10'0 0.0
2017-Oct-11 17:49N 32°45' W 091°10'0 0.0
2017-Oct-11 17:17N 32°45' W 091°10'0 0.0
2017-Oct-11 16:54N 32°45' W 091°10'0 0.0
2017-Oct-11 00:00N 32°45' W 091°10'0 0.0
2017-Oct-10 23:29N 32°45' W 091°10'0 0.0
2017-Oct-10 18:45N 32°45' W 091°10'0 0.0
2017-Oct-09 23:10N 32°45' W 091°10'0 0.0
2017-Oct-09 21:35N 32°45' W 091°10'0 0.0
2017-Oct-09 14:43N 32°45' W 091°10'0 0.0
2017-Oct-09 14:29N 32°45' W 091°10'0 0.0
2017-Oct-09 13:39N 32°45' W 091°10'0 0.1
2017-Oct-09 12:56N 32°45' W 091°10'0 0.0
2017-Oct-09 12:26N 32°45' W 091°10'0 0.0
2017-Oct-09 12:00N 32°45' W 091°10'0 0.0
2017-Oct-09 11:15N 32°45' W 091°10'0 0.0
2017-Oct-09 10:54N 32°45' W 091°10'0 0.0
2017-Oct-09 10:29N 32°45' W 091°10'0 0.0
2017-Oct-09 09:54N 32°45' W 091°10'0 0.0
2017-Oct-09 09:15N 32°45' W 091°10'  
Track history (hours):
 
Tides and Currents Weather Stations Pressure Air Temp Water Temp Dewpoint Dewpoint Depression Visibility Wind Speed Wind Dir Waves Ship Positions

Kim King

Owner: Terral RiverService, Inc., Lake Providence, LA. More information available from US FCC via Universal Licensing System and Coast Guard Vessel Documentation Center.

Last reported at 2017-Oct-19 09:00 UTC. Time now 2017-Oct-19 09:13 UTC.
Position N 32°45' W 091°10'.

; draft 6 m.

Type: Towing. MMSI: 367545540.

Date/timePositionNaut miles runAvg speedWind from/ knotsBaromVisibWave heightAir tempDewpointWater temp
2017-Oct-19 09:00N 32°45' W 091°10'4 4.4
2017-Oct-19 08:02N 32°44' W 091°05'4 3.5
2017-Oct-19 06:53N 32°44' W 091°10'0 0.0
2017-Oct-19 05:06N 32°44' W 091°10'4 5.3
2017-Oct-19 04:21N 32°44' W 091°05'0 0.3
2017-Oct-19 03:54N 32°44' W 091°05'5 4.7
2017-Oct-19 02:55N 32°45' W 091°10'0 0.0
2017-Oct-19 02:23N 32°45' W 091°10'0 0.0
2017-Oct-19 02:00N 32°45' W 091°10'0 0.0
2017-Oct-19 01:28N 32°45' W 091°10'0 0.0
2017-Oct-19 01:00N 32°45' W 091°10'1 0.1
2017-Oct-18 16:07N 32°45' W 091°10'0 0.2
2017-Oct-18 13:59N 32°45' W 091°10'1 2.4
2017-Oct-18 13:30N 32°44' W 091°09'1 0.4
2017-Oct-18 11:33N 32°45' W 091°10'0 0.1
2017-Oct-18 11:30N 32°45' W 091°10'0 0.2
2017-Oct-18 09:07N 32°45' W 091°10'0 0.1
2017-Oct-18 07:15N 32°45' W 091°10'0 0.1
2017-Oct-18 04:46N 32°45' W 091°10'0 0.0
2017-Oct-17 12:10N 32°45' W 091°10'0 0.1
2017-Oct-17 09:08N 32°45' W 091°10'0 0.0
2017-Oct-17 05:02N 32°45' W 091°10'0 0.2
2017-Oct-17 02:12N 32°45' W 091°10'0 0.4
2017-Oct-17 01:24N 32°45' W 091°10'0 0.0
2017-Oct-16 13:24N 32°45' W 091°10'0 0.1
2017-Oct-16 09:02N 32°45' W 091°10'0 0.0
2017-Oct-16 08:48N 32°45' W 091°10'0 0.0
2017-Oct-16 08:13N 32°45' W 091°10'0 0.0
2017-Oct-16 07:59N 32°45' W 091°10'0 0.0
2017-Oct-15 15:21N 32°45' W 091°10'0 0.0
2017-Oct-15 04:25N 32°45' W 091°10'1 0.5
2017-Oct-15 03:16N 32°45' W 091°10'0 1.8
2017-Oct-15 02:59N 32°45' W 091°10'1 1.5
2017-Oct-15 02:27N 32°45' W 091°10'1 1.7
2017-Oct-15 01:57N 32°45' W 091°10'1 1.9
2017-Oct-15 01:30N 32°45' W 091°10'0 0.4
2017-Oct-15 00:35N 32°45' W 091°10'0 0.0
2017-Oct-14 23:18N 32°45' W 091°10'1 0.0
2017-Oct-14 12:03N 32°45' W 091°10'0 0.2
2017-Oct-14 11:57N 32°45' W 091°10'0 0.0
2017-Oct-14 10:39N 32°45' W 091°10'0 0.0
2017-Oct-14 06:41N 32°45' W 091°10'0 0.0
2017-Oct-14 06:31N 32°45' W 091°10'0 0.0
2017-Oct-14 05:59N 32°45' W 091°10'0 0.0
2017-Oct-14 05:06N 32°45' W 091°10'0 0.0
2017-Oct-14 05:01N 32°45' W 091°10'0 0.0
2017-Oct-14 04:28N 32°45' W 091°10'0 0.0
2017-Oct-14 03:55N 32°45' W 091°10'0 0.0
2017-Oct-14 03:16N 32°45' W 091°10'0 0.0
2017-Oct-14 02:52N 32°45' W 091°10'1 0.1
2017-Oct-13 15:26N 32°44' W 091°09'1 2.3
2017-Oct-13 15:00N 32°44' W 091°08'1 2.4
2017-Oct-13 14:30N 32°44' W 091°07'2 1.4
2017-Oct-13 12:59N 32°44' W 091°09'3 1.0
2017-Oct-13 09:34N 32°44' W 091°05'0 0.1
2017-Oct-13 09:31N 32°44' W 091°05'0 0.0
2017-Oct-13 09:00N 32°44' W 091°05'0 0.2
2017-Oct-13 08:18N 32°44' W 091°05'0 0.2
2017-Oct-13 08:00N 32°44' W 091°05'0 0.2
2017-Oct-13 07:21N 32°44' W 091°05'4 3.3
2017-Oct-13 06:03N 32°45' W 091°10'0 1.0
2017-Oct-13 05:46N 32°45' W 091°10'0 0.0
2017-Oct-13 05:30N 32°45' W 091°10'0 0.6
2017-Oct-13 04:57N 32°45' W 091°10'0 0.1
2017-Oct-13 03:10N 32°45' W 091°10'0 0.8
2017-Oct-13 02:59N 32°45' W 091°10'1 1.9
2017-Oct-13 02:30N 32°44' W 091°10'4 0.2
2017-Oct-12 06:22N 32°44' W 091°04'0 0.1
2017-Oct-12 05:39N 32°44' W 091°04'0 0.2
2017-Oct-12 05:29N 32°44' W 091°04'0 0.3
2017-Oct-12 04:08N 32°44' W 091°05'0 0.3
2017-Oct-12 04:01N 32°44' W 091°05'0 0.1
2017-Oct-12 03:30N 32°44' W 091°05'0 0.2
2017-Oct-12 02:55N 32°44' W 091°05'0 0.2
2017-Oct-12 01:45N 32°44' W 091°04'0 0.0
2017-Oct-12 01:28N 32°44' W 091°04'0 0.2
2017-Oct-12 00:56N 32°44' W 091°05'5 1.1
2017-Oct-11 20:46N 32°45' W 091°10'1 0.5
2017-Oct-11 19:31N 32°45' W 091°10'0 0.0
2017-Oct-11 19:08N 32°45' W 091°10'0 0.0
2017-Oct-11 18:59N 32°45' W 091°10'0 0.0
2017-Oct-11 17:49N 32°45' W 091°10'0 0.0
2017-Oct-11 17:17N 32°45' W 091°10'0 0.0
2017-Oct-11 16:54N 32°45' W 091°10'0 0.0
2017-Oct-11 00:00N 32°45' W 091°10'0 0.0
2017-Oct-10 23:29N 32°45' W 091°10'0 0.0
2017-Oct-10 18:45N 32°45' W 091°10'0 0.0
2017-Oct-09 23:10N 32°45' W 091°10'0 0.0
2017-Oct-09 21:35N 32°45' W 091°10'0 0.0
2017-Oct-09 14:43N 32°45' W 091°10'0 0.0
2017-Oct-09 14:29N 32°45' W 091°10'0 0.0
2017-Oct-09 13:39N 32°45' W 091°10'0 0.1
2017-Oct-09 12:56N 32°45' W 091°10'0 0.0
2017-Oct-09 12:26N 32°45' W 091°10'0 0.0
2017-Oct-09 12:00N 32°45' W 091°10'0 0.0
2017-Oct-09 11:15N 32°45' W 091°10'0 0.0
2017-Oct-09 10:54N 32°45' W 091°10'0 0.0
2017-Oct-09 10:29N 32°45' W 091°10'0 0.0
2017-Oct-09 09:54N 32°45' W 091°10'0 0.0
2017-Oct-09 09:15N 32°45' W 091°10'  

Dump ship's entire track history